createdAt,value
2022-12-13T00:01:27.385Z,-1.10
2022-12-13T00:03:55.970Z,-1.10
2022-12-13T00:16:24.371Z,-1.00
2022-12-13T00:18:55.566Z,-1.10
2022-12-13T00:21:26.000Z,-1.10
2022-12-13T00:26:23.658Z,-1.10
2022-12-13T00:41:35.305Z,-1.20
2022-12-13T00:44:03.443Z,-1.20
2022-12-13T00:49:00.038Z,-1.30
2022-12-13T00:51:28.603Z,-1.30
2022-12-13T00:56:25.786Z,-1.30
2022-12-13T01:01:23.175Z,-1.30
2022-12-13T01:06:21.454Z,-1.40
2022-12-13T01:08:49.170Z,-1.40
2022-12-13T01:11:16.936Z,-1.40
2022-12-13T01:16:12.902Z,-1.40
2022-12-13T01:18:41.028Z,-1.30
2022-12-13T01:21:17.658Z,-1.30
2022-12-13T01:26:15.050Z,-1.30
2022-12-13T01:31:15.279Z,-1.30
2022-12-13T01:36:14.273Z,-1.40
2022-12-13T01:41:17.885Z,-1.40
2022-12-13T01:46:16.530Z,-1.30
2022-12-13T01:49:04.226Z,-1.40
2022-12-13T01:51:46.639Z,-1.30
2022-12-13T01:54:21.208Z,-1.40
2022-12-13T01:57:00.795Z,-1.30
2022-12-13T02:04:43.669Z,-1.30
2022-12-13T02:07:23.084Z,-1.20
2022-12-13T02:09:56.935Z,-1.10
2022-12-13T02:12:30.092Z,-1.20
2022-12-13T02:15:01.186Z,-1.10
2022-12-13T02:17:59.214Z,-1.20
2022-12-13T02:20:52.210Z,-1.10
2022-12-13T02:26:15.159Z,-1.10
2022-12-13T02:28:48.082Z,-1.20
2022-12-13T02:31:43.623Z,-1.20
2022-12-13T02:34:18.514Z,-1.10
2022-12-13T02:37:17.806Z,-1.10
2022-12-13T02:39:51.724Z,-1.10
2022-12-13T02:42:25.539Z,-1.10
2022-12-13T02:45:00.212Z,-1.00
2022-12-13T02:47:29.346Z,-1.00
2022-12-13T02:50:02.424Z,-1.00
2022-12-13T02:52:31.929Z,-1.00
2022-12-13T02:54:59.732Z,-1.00
2022-12-13T02:57:38.494Z,-1.00
2022-12-13T03:00:24.889Z,-1.00
2022-12-13T03:03:11.464Z,-1.00
2022-12-13T03:06:33.769Z,-0.90
2022-12-13T03:09:30.887Z,-1.10
2022-12-13T03:15:24.612Z,-0.90
2022-12-13T03:17:59.842Z,-0.90
2022-12-13T03:20:28.926Z,-0.90
2022-12-13T03:22:56.791Z,-0.90
2022-12-13T03:25:31.527Z,-0.90
2022-12-13T03:32:56.997Z,-0.90
2022-12-13T03:35:25.083Z,-1.00
2022-12-13T03:40:30.276Z,-1.00
2022-12-13T03:53:01.924Z,-1.30
2022-12-13T03:55:29.123Z,-1.30
2022-12-13T04:25:37.997Z,-1.50
2022-12-13T04:35:27.086Z,-1.20
2022-12-13T04:45:22.980Z,-1.20
2022-12-13T05:00:11.093Z,-1.20
2022-12-13T05:05:05.740Z,-1.30
2022-12-13T05:19:49.389Z,-1.30
2022-12-13T05:32:43.391Z,-1.40
2022-12-13T05:35:22.290Z,-1.40
2022-12-13T05:37:53.783Z,-1.40
2022-12-13T05:45:18.659Z,-1.40
2022-12-13T05:50:15.533Z,-1.40
2022-12-13T05:52:46.197Z,-1.20
2022-12-13T05:57:41.379Z,-1.40
2022-12-13T06:00:29.249Z,-1.40
2022-12-13T06:13:21.184Z,-1.50
2022-12-13T06:16:00.984Z,-1.40
2022-12-13T06:21:00.471Z,-1.50
2022-12-13T06:28:22.715Z,-1.50
2022-12-13T06:35:52.706Z,-1.50
2022-12-13T06:41:10.253Z,-1.50
2022-12-13T06:46:05.770Z,-1.50
2022-12-13T06:48:33.190Z,-1.50
2022-12-13T06:51:01.784Z,-1.50
2022-12-13T06:53:29.049Z,-1.50
2022-12-13T06:58:24.455Z,-1.40
2022-12-13T07:01:00.996Z,-1.20
2022-12-13T07:03:29.786Z,-1.40
2022-12-13T07:13:22.968Z,-1.30
2022-12-13T07:18:18.298Z,-1.30
2022-12-13T07:20:45.702Z,-1.30
2022-12-13T07:23:12.712Z,-1.20
2022-12-13T07:28:09.053Z,-1.20
2022-12-13T07:30:41.461Z,-1.20
2022-12-13T07:33:09.522Z,-1.20
2022-12-13T07:35:37.800Z,-1.10
2022-12-13T07:38:08.778Z,-1.10
2022-12-13T07:40:37.466Z,-1.10
2022-12-13T07:45:32.876Z,-1.10
2022-12-13T07:48:04.215Z,-0.30
2022-12-13T07:50:36.990Z,-1.10
2022-12-13T07:53:08.662Z,-1.10
2022-12-13T07:55:36.859Z,-1.00
2022-12-13T07:58:11.929Z,-1.00
2022-12-13T08:00:40.294Z,-1.00
2022-12-13T08:03:18.399Z,-1.00
2022-12-13T08:09:40.394Z,-0.90
2022-12-13T08:14:34.977Z,-0.90
2022-12-13T08:17:02.033Z,-0.90
2022-12-13T08:19:28.890Z,-0.80
2022-12-13T08:24:29.897Z,-0.80
2022-12-13T08:27:01.575Z,-0.80
2022-12-13T08:29:34.737Z,-0.70
2022-12-13T08:32:07.848Z,-0.60
2022-12-13T08:34:34.781Z,-0.60
2022-12-13T08:37:03.530Z,-0.50
2022-12-13T08:39:35.617Z,-0.70
2022-12-13T08:42:14.726Z,-0.60
2022-12-13T08:44:45.172Z,-0.70
2022-12-13T08:47:12.056Z,-0.60
2022-12-13T08:49:49.648Z,-0.60
2022-12-13T08:52:16.560Z,-0.50
2022-12-13T08:54:44.849Z,-0.50
2022-12-13T08:59:40.453Z,-0.60
2022-12-13T09:02:10.000Z,-0.60
2022-12-13T09:09:31.476Z,-0.60
2022-12-13T09:11:59.597Z,-0.60
2022-12-13T09:14:33.566Z,-0.60
2022-12-13T09:19:37.047Z,-0.60
2022-12-13T09:22:05.584Z,-0.70
2022-12-13T09:27:09.459Z,-0.70
2022-12-13T09:29:37.810Z,-0.60
2022-12-13T09:32:05.429Z,-0.70
2022-12-13T09:34:35.461Z,-0.60
2022-12-13T09:37:02.380Z,-0.50
2022-12-13T09:39:29.822Z,-0.50
2022-12-13T09:42:01.480Z,-0.40
2022-12-13T09:44:46.639Z,-0.30
2022-12-13T09:47:29.049Z,-0.40
2022-12-13T09:50:07.510Z,-0.40
2022-12-13T09:56:29.050Z,1.30
2022-12-13T09:58:57.330Z,-0.50
2022-12-13T10:01:24.502Z,-0.40
2022-12-13T10:03:54.663Z,-0.50
2022-12-13T10:06:24.234Z,-0.50
2022-12-13T10:08:58.924Z,-0.60
2022-12-13T10:11:32.448Z,-0.60
2022-12-13T10:14:06.112Z,-0.40
2022-12-13T10:16:37.074Z,-0.30
2022-12-13T10:19:29.317Z,-0.30
2022-12-13T10:22:01.960Z,-0.50
2022-12-13T10:24:49.902Z,-0.40
2022-12-13T10:27:29.193Z,-0.20
2022-12-13T10:30:13.339Z,-0.30
2022-12-13T10:32:55.188Z,-0.10
2022-12-13T10:35:34.713Z,-0.10
2022-12-13T10:38:21.441Z,-0.10
2022-12-13T10:40:49.295Z,-0.10
2022-12-13T10:43:17.448Z,-0.10
2022-12-13T10:45:58.437Z,0.10
2022-12-13T10:48:38.759Z,0.30
2022-12-13T10:51:12.197Z,0.20
2022-12-13T10:53:47.517Z,0.20
2022-12-13T10:56:22.974Z,0.70
2022-12-13T10:59:13.284Z,0.10
2022-12-13T11:01:42.286Z,0.00
2022-12-13T11:04:29.856Z,0.10
2022-12-13T11:06:58.920Z,0.20
2022-12-13T11:09:38.742Z,1.00
2022-12-13T11:12:14.924Z,0.20
2022-12-13T11:15:06.611Z,0.20
2022-12-13T11:21:30.244Z,0.00
2022-12-13T11:24:01.840Z,-0.10
2022-12-13T11:26:31.254Z,-0.20
2022-12-13T11:33:00.579Z,-0.30
2022-12-13T11:35:35.003Z,-0.40
2022-12-13T11:38:28.702Z,-0.20
2022-12-13T11:41:11.184Z,-0.40
2022-12-13T11:43:41.698Z,-0.30
2022-12-13T11:46:19.188Z,-0.40
2022-12-13T11:48:53.178Z,-0.30
2022-12-13T11:51:31.395Z,-0.40
2022-12-13T11:54:04.886Z,-0.60
2022-12-13T11:56:38.931Z,-0.50
2022-12-13T11:59:29.664Z,-0.40
2022-12-13T12:02:16.363Z,-0.40
2022-12-13T12:05:00.369Z,1.10
2022-12-13T12:07:33.203Z,-0.30
2022-12-13T12:10:29.213Z,-0.30
2022-12-13T12:13:04.820Z,-0.30
2022-12-13T12:15:42.152Z,-0.30
2022-12-13T12:18:15.904Z,-0.20
2022-12-13T12:21:00.019Z,-0.10
2022-12-13T12:24:06.593Z,-0.20
2022-12-13T12:26:56.665Z,-0.10
2022-12-13T12:29:50.758Z,-0.10
2022-12-13T12:32:23.695Z,-0.10
2022-12-13T12:35:17.458Z,-0.20
2022-12-13T12:37:56.079Z,-0.10
2022-12-13T12:43:40.878Z,-0.20
2022-12-13T12:46:25.548Z,-0.30
2022-12-13T12:49:09.881Z,-0.30
2022-12-13T12:54:19.289Z,-0.40
2022-12-13T12:57:14.109Z,-0.30
2022-12-13T13:00:02.331Z,-0.30
2022-12-13T13:02:43.411Z,-0.50
2022-12-13T13:05:23.828Z,-0.40
2022-12-13T13:07:59.557Z,-0.40
2022-12-13T13:10:27.519Z,0.00
2022-12-13T13:13:11.400Z,-0.50
2022-12-13T13:15:39.713Z,-0.50
2022-12-13T13:18:45.759Z,-0.60
2022-12-13T13:21:30.649Z,-0.60
2022-12-13T13:24:09.774Z,-0.60
2022-12-13T13:27:07.486Z,-0.70
2022-12-13T13:29:36.528Z,-0.60
2022-12-13T13:32:12.303Z,-0.80
2022-12-13T13:34:42.442Z,-0.70
2022-12-13T13:37:22.997Z,-0.70
2022-12-13T13:39:55.766Z,-0.90
2022-12-13T13:42:30.758Z,-0.80
2022-12-13T13:45:20.495Z,-0.70
2022-12-13T13:48:26.178Z,-0.70
2022-12-13T13:51:30.321Z,-0.80
2022-12-13T13:54:16.120Z,-0.70
2022-12-13T13:57:33.206Z,-0.70
2022-12-13T14:00:17.437Z,-0.70
2022-12-13T14:02:58.720Z,-0.80
2022-12-13T14:05:53.580Z,-0.80
2022-12-13T14:08:44.224Z,-0.80
2022-12-13T14:11:55.264Z,-0.90
2022-12-13T14:14:43.342Z,-0.90
2022-12-13T14:17:48.343Z,-0.90
2022-12-13T14:20:54.017Z,-1.10
2022-12-13T14:23:27.229Z,-1.20
2022-12-13T14:26:00.182Z,-1.30
2022-12-13T14:28:44.702Z,-0.60
2022-12-13T14:31:34.819Z,-1.40
2022-12-13T14:34:03.144Z,-1.40
2022-12-13T14:36:35.318Z,-1.40
2022-12-13T14:39:25.170Z,-1.40
2022-12-13T14:41:56.495Z,-1.30
2022-12-13T14:44:27.530Z,-1.30
2022-12-13T14:47:03.361Z,-1.20
2022-12-13T14:49:33.351Z,-1.30
2022-12-13T14:52:26.467Z,-1.30
2022-12-13T14:54:59.877Z,-1.30
2022-12-13T14:57:29.057Z,-1.30
2022-12-13T14:59:58.078Z,-1.30
2022-12-13T15:02:33.329Z,-1.30
2022-12-13T15:05:02.872Z,-1.20
2022-12-13T15:07:44.032Z,-1.20
2022-12-13T15:10:28.025Z,-1.20
2022-12-13T15:12:55.598Z,-1.10
2022-12-13T15:15:33.843Z,-1.20
2022-12-13T15:18:20.255Z,-1.30
2022-12-13T15:20:49.985Z,-1.30
2022-12-13T15:23:19.951Z,-1.20
2022-12-13T15:25:50.114Z,-1.20
2022-12-13T15:28:21.623Z,-1.20
2022-12-13T15:30:49.398Z,-1.40
2022-12-13T15:33:16.779Z,-1.30
2022-12-13T15:35:48.024Z,-1.30
2022-12-13T15:38:28.532Z,-1.30
2022-12-13T15:40:56.791Z,-1.30
2022-12-13T15:43:42.528Z,-1.50
2022-12-13T15:46:10.269Z,-1.60
2022-12-13T15:48:41.501Z,-1.70
2022-12-13T15:51:30.054Z,-1.70
2022-12-13T15:54:18.414Z,-1.70
2022-12-13T15:57:01.372Z,-1.90
2022-12-13T15:59:34.235Z,-2.00
2022-12-13T16:02:02.484Z,-1.80
2022-12-13T16:04:32.919Z,-1.90
2022-12-13T16:07:01.348Z,-2.00
2022-12-13T16:09:34.990Z,-2.00
2022-12-13T16:12:07.131Z,-2.10
2022-12-13T16:14:49.429Z,-2.20
2022-12-13T16:17:24.635Z,-2.10
2022-12-13T16:19:56.342Z,-2.10
2022-12-13T16:24:52.885Z,-2.20
2022-12-13T16:27:19.883Z,-2.20
2022-12-13T16:37:26.559Z,-2.40
2022-12-13T16:50:19.167Z,-2.80
2022-12-13T16:52:46.408Z,-2.90
2022-12-13T17:00:11.299Z,-1.10
2022-12-13T17:05:06.490Z,-2.60
2022-12-13T17:42:05.182Z,-3.00
2022-12-13T17:51:54.818Z,-3.30
2022-12-13T17:54:23.966Z,-3.40
2022-12-13T18:01:47.172Z,-3.10
2022-12-13T18:09:10.914Z,-3.20
2022-12-13T18:14:07.387Z,-3.30
2022-12-13T18:19:10.788Z,-3.20
2022-12-13T18:24:06.728Z,-3.30
2022-12-13T18:36:25.331Z,-3.50
2022-12-13T18:41:25.298Z,-3.60
2022-12-13T18:43:59.629Z,-3.70
2022-12-13T18:46:27.514Z,-1.80
2022-12-13T18:58:48.343Z,-3.70
2022-12-13T19:03:48.126Z,-3.60
2022-12-13T19:06:26.048Z,-3.50
2022-12-13T19:08:56.930Z,-3.50
2022-12-13T19:11:26.655Z,-3.50
2022-12-13T19:13:54.496Z,-3.40
2022-12-13T19:16:23.457Z,-3.40
2022-12-13T19:21:20.451Z,-3.30
2022-12-13T19:33:46.560Z,-3.70
2022-12-13T19:41:10.646Z,-3.90
2022-12-13T19:51:01.722Z,-4.10
2022-12-13T19:53:30.360Z,-4.10
2022-12-13T20:05:57.992Z,-3.60
2022-12-13T20:11:07.032Z,-3.40
2022-12-13T20:21:13.041Z,-3.00
2022-12-13T20:26:11.678Z,-2.90
2022-12-13T20:31:11.399Z,-2.80
2022-12-13T20:36:26.117Z,-2.70
2022-12-13T20:38:56.130Z,-2.70
2022-12-13T20:41:25.143Z,-2.70
2022-12-13T20:43:54.259Z,-2.70
2022-12-13T20:46:22.319Z,-2.70
2022-12-13T20:48:50.852Z,-2.80
2022-12-13T20:51:20.451Z,-2.90
2022-12-13T20:53:49.096Z,-3.00
2022-12-13T20:56:18.701Z,-3.10
2022-12-13T21:01:21.156Z,-3.10
2022-12-13T21:03:48.381Z,-3.10
2022-12-13T21:08:51.654Z,-3.00
2022-12-13T21:11:26.843Z,-2.90
2022-12-13T21:14:15.143Z,-2.80
2022-12-13T21:19:22.858Z,-2.70
2022-12-13T21:21:50.204Z,-1.70
2022-12-13T21:24:19.104Z,-2.70
2022-12-13T21:29:16.131Z,-2.60
2022-12-13T21:31:48.705Z,-2.60
2022-12-13T21:36:46.220Z,-2.60
2022-12-13T21:39:18.842Z,-2.60
2022-12-13T21:44:17.217Z,-2.50
2022-12-13T21:49:31.782Z,-2.50
2022-12-13T21:51:58.683Z,-2.50
2022-12-13T21:54:25.561Z,-0.90
2022-12-13T22:02:26.098Z,-2.50
2022-12-13T22:04:55.445Z,-2.50
2022-12-13T22:07:26.466Z,-2.50
2022-12-13T22:09:54.415Z,-2.60
2022-12-13T22:12:38.095Z,-2.60
2022-12-13T22:15:07.382Z,-2.60
2022-12-13T22:20:09.405Z,-2.70
2022-12-13T22:22:39.007Z,-2.70
2022-12-13T22:25:06.777Z,-2.70
2022-12-13T22:30:01.196Z,-2.80
2022-12-13T22:32:30.057Z,-2.90
2022-12-13T22:34:57.013Z,-3.00
2022-12-13T23:09:26.221Z,-2.90
2022-12-13T23:19:50.865Z,-2.70
2022-12-13T23:22:22.536Z,-2.80
2022-12-13T23:39:34.262Z,-2.60
2022-12-13T23:46:56.052Z,-2.80
